LESA/SLM METAR and TAF weather

Enter ICAO airport designator
Station Type Date Time Source
LESA METAR 2021/02/27 09:15 UTC NOAA

LESA 270915Z 08005KT 040V100 3000 BR OVC002 05/05 Q1027


Station Type Date Time Source
LESA Decoded METAR 2021/02/27 09:15 UTC NOAA

Salamanca / Matacan, Spain (LESA) 40-57N 005-30W 795M
Feb 27, 2021 - 04:15 AM EST / 2021.02.27 0915 UTC
Wind: from the E (080 degrees) at 6 MPH (5 KT) (direction variable):0
Visibility: 1 mile(s):0
Sky conditions: overcast
Weather: mist
Temperature: 41 F (5 C)
Dew Point: 41 F (5 C)
Relative Humidity: 100%
Pressure (altimeter): 30.33 in. Hg (1027 hPa)
ob: LESA 270915Z 08005KT 040V100 3000 BR OVC002 05/05 Q1027
cycle: 9

Station Type Date Time Source
LESA TAF 2021/02/27 09:27 UTC NOAA

TAF LESA 270800Z 2709/2809 07010KT CAVOK TX17/2715Z TN01/2806Z PROB40
TEMPO 2709/2711 VRB05KT 3500 BR BKN007 PROB30
TEMPO 2709/2710 0800 FG VV002

Example: see airport list